createdAt,value
2018-09-05T00:01:34.925Z,17.47
2018-09-05T00:04:02.797Z,17.60
2018-09-05T00:06:30.950Z,15.83
2018-09-05T00:08:58.837Z,19.70
2018-09-05T00:11:26.708Z,19.13
2018-09-05T00:13:55.647Z,22.90
2018-09-05T00:16:23.544Z,19.17
2018-09-05T00:18:51.465Z,18.50
2018-09-05T00:21:19.456Z,19.77
2018-09-05T00:23:47.414Z,20.20
2018-09-05T00:26:15.373Z,19.47
2018-09-05T00:28:44.217Z,17.43
2018-09-05T00:31:12.306Z,20.23
2018-09-05T00:33:40.492Z,22.75
2018-09-05T00:36:08.595Z,18.20
2018-09-05T00:38:36.492Z,21.97
2018-09-05T00:41:06.422Z,22.10
2018-09-05T00:43:34.394Z,22.20
2018-09-05T00:46:02.318Z,18.80
2018-09-05T00:48:30.215Z,24.20
2018-09-05T00:50:58.102Z,29.10
2018-09-05T00:53:26.067Z,21.47
2018-09-05T00:55:54.359Z,20.15
2018-09-05T00:58:23.302Z,23.50
2018-09-05T01:00:51.280Z,28.03
2018-09-05T01:03:21.271Z,22.77
2018-09-05T01:05:49.206Z,22.33
2018-09-05T01:08:21.170Z,21.60
2018-09-05T01:10:49.104Z,21.13
2018-09-05T01:13:16.999Z,21.00
2018-09-05T01:15:44.851Z,24.10
2018-09-05T01:18:12.767Z,24.87
2018-09-05T01:20:41.603Z,21.97
2018-09-05T01:23:10.458Z,24.65
2018-09-05T01:25:38.417Z,22.73
2018-09-05T01:28:07.240Z,19.10
2018-09-05T01:30:35.175Z,23.50
2018-09-05T01:33:03.113Z,31.20
2018-09-05T01:35:32.007Z,21.80
2018-09-05T01:38:01.954Z,27.43
2018-09-05T01:40:30.016Z,25.90
2018-09-05T01:42:58.884Z,23.75
2018-09-05T01:45:27.811Z,24.25
2018-09-05T01:47:55.745Z,23.93
2018-09-05T01:50:31.130Z,26.43
2018-09-05T01:52:59.044Z,24.30
2018-09-05T01:55:30.235Z,25.57
2018-09-05T01:57:58.166Z,24.70
2018-09-05T02:00:33.107Z,25.03
2018-09-05T02:03:01.406Z,27.97
2018-09-05T02:05:29.415Z,24.83
2018-09-05T02:07:57.276Z,25.20
2018-09-05T02:10:25.194Z,29.60
2018-09-05T02:12:53.151Z,24.17
2018-09-05T02:15:25.568Z,28.60
2018-09-05T02:17:55.402Z,24.17
2018-09-05T02:20:23.331Z,25.30
2018-09-05T02:22:52.216Z,26.00
2018-09-05T02:25:20.165Z,25.95
2018-09-05T02:27:49.042Z,30.27
2018-09-05T02:30:17.946Z,28.33
2018-09-05T02:32:46.181Z,30.67
2018-09-05T02:35:14.070Z,33.80
2018-09-05T02:37:44.337Z,41.10
2018-09-05T02:40:12.267Z,49.70
2018-09-05T02:42:41.129Z,43.60
2018-09-05T02:45:10.063Z,48.35
2018-09-05T02:47:38.923Z,51.90
2018-09-05T02:50:06.829Z,49.67
2018-09-05T02:52:35.054Z,51.17
2018-09-05T02:55:03.953Z,52.53
2018-09-05T02:57:31.895Z,53.70
2018-09-05T02:59:59.792Z,54.15
2018-09-05T03:02:27.656Z,50.40
2018-09-05T03:04:57.563Z,55.50
2018-09-05T03:07:25.487Z,54.40
2018-09-05T03:09:53.440Z,58.90
2018-09-05T03:12:22.653Z,56.10
2018-09-05T03:14:52.331Z,63.75
2018-09-05T03:17:20.645Z,58.33
2018-09-05T03:19:48.570Z,64.00
2018-09-05T03:22:16.469Z,64.93
2018-09-05T03:24:46.399Z,69.00
2018-09-05T03:27:14.321Z,63.55
2018-09-05T03:29:42.270Z,58.20
2018-09-05T03:32:10.276Z,62.30
2018-09-05T03:34:43.466Z,68.20
2018-09-05T03:39:54.582Z,64.17
2018-09-05T03:42:24.674Z,58.90
2018-09-05T03:44:52.641Z,58.60
2018-09-05T03:47:26.739Z,56.73
2018-09-05T03:49:55.671Z,60.10
2018-09-05T03:52:30.329Z,54.77
2018-09-05T03:55:03.717Z,58.95
2018-09-05T03:57:35.565Z,54.83
2018-09-05T04:02:36.415Z,55.27
2018-09-05T04:05:04.423Z,51.25
2018-09-05T04:07:32.285Z,52.07
2018-09-05T04:10:00.234Z,54.73
2018-09-05T04:12:29.166Z,49.30
2018-09-05T04:14:57.111Z,51.00
2018-09-05T04:17:26.084Z,49.67
2018-09-05T04:19:54.019Z,47.70
2018-09-05T04:22:21.852Z,47.43
2018-09-05T04:24:49.754Z,46.67
2018-09-05T04:27:17.633Z,51.27
2018-09-05T04:29:46.560Z,48.40
2018-09-05T04:32:16.534Z,54.30
2018-09-05T04:34:44.508Z,55.67
2018-09-05T04:37:13.312Z,48.85
2018-09-05T04:39:41.229Z,50.47
2018-09-05T04:42:13.978Z,48.10
2018-09-05T04:44:42.923Z,49.27
2018-09-05T04:47:10.785Z,50.53
2018-09-05T04:49:40.665Z,45.00
2018-09-05T04:52:08.591Z,47.60
2018-09-05T04:54:37.466Z,44.77
2018-09-05T04:57:06.288Z,40.93
2018-09-05T04:59:34.574Z,39.13
2018-09-05T05:02:03.522Z,41.53
2018-09-05T05:04:35.137Z,36.50
2018-09-05T05:07:03.050Z,36.73
2018-09-05T05:09:31.950Z,38.30
2018-09-05T05:11:59.921Z,37.47
2018-09-05T05:14:27.901Z,34.23
2018-09-05T05:16:56.720Z,34.87
2018-09-05T05:19:24.617Z,34.20
2018-09-05T05:21:53.520Z,34.97
2018-09-05T05:24:21.374Z,32.63
2018-09-05T05:26:51.305Z,33.27
2018-09-05T05:29:19.162Z,33.05
2018-09-05T05:31:47.198Z,34.50
2018-09-05T05:34:17.633Z,33.75
2018-09-05T05:36:45.592Z,31.00
2018-09-05T05:39:14.545Z,31.80
2018-09-05T05:41:44.451Z,30.10
2018-09-05T05:44:14.357Z,30.10
2018-09-05T05:46:42.354Z,29.90
2018-09-05T05:49:10.352Z,30.75
2018-09-05T05:51:38.289Z,26.30
2018-09-05T05:54:07.145Z,26.13
2018-09-05T05:56:35.093Z,28.70
2018-09-05T05:59:03.314Z,26.60
2018-09-05T06:01:32.191Z,24.57
2018-09-05T06:04:00.081Z,28.63
2018-09-05T06:06:28.179Z,27.73
2018-09-05T06:08:56.082Z,26.70
2018-09-05T06:11:24.042Z,27.37
2018-09-05T06:13:51.988Z,24.80
2018-09-05T06:16:19.922Z,25.00
2018-09-05T06:18:48.826Z,28.30
2018-09-05T06:21:17.711Z,28.73
2018-09-05T06:26:12.874Z,25.65
2018-09-05T06:28:41.083Z,27.60
2018-09-05T06:36:03.277Z,26.10
2018-09-05T06:38:32.171Z,26.10
2018-09-05T06:41:00.166Z,24.83
2018-09-05T06:43:28.186Z,24.90
2018-09-05T06:45:56.193Z,22.90
2018-09-05T09:23:44.900Z,11.53
2018-09-05T09:28:39.808Z,9.90
2018-09-05T09:31:07.849Z,9.73
2018-09-05T09:33:35.795Z,11.73
2018-09-05T11:04:49.469Z,9.60
2018-09-05T11:09:44.433Z,9.45
2018-09-05T12:28:24.571Z,8.45
2018-09-05T12:33:19.534Z,11.55
2018-09-05T12:35:47.415Z,7.40
2018-09-05T12:45:36.755Z,9.75
2018-09-05T12:52:58.821Z,10.30
2018-09-05T12:55:26.680Z,6.35
2018-09-05T12:57:54.612Z,6.70
2018-09-05T13:00:22.521Z,6.63
2018-09-05T13:02:50.412Z,5.77
2018-09-05T13:05:18.270Z,6.37
2018-09-05T13:07:46.170Z,6.60
2018-09-05T13:10:14.013Z,5.80
2018-09-05T13:29:51.632Z,6.70
2018-09-05T13:32:19.510Z,9.75
2018-09-05T13:34:47.329Z,6.50
2018-09-05T13:37:15.337Z,11.75
2018-09-05T13:54:31.925Z,6.20
2018-09-05T14:01:53.972Z,9.10
2018-09-05T14:04:21.893Z,9.63
2018-09-05T14:06:49.781Z,6.75
2018-09-05T14:38:43.451Z,6.40
2018-09-05T14:41:11.418Z,7.97
2018-09-05T14:43:39.321Z,7.37
2018-09-05T14:46:07.254Z,7.70
2018-09-05T14:48:35.455Z,5.80
2018-09-05T14:51:03.357Z,8.20
2018-09-05T14:53:31.222Z,6.80
2018-09-05T14:55:59.094Z,6.00
2018-09-05T14:58:26.975Z,7.00
2018-09-05T15:00:54.870Z,5.83
2018-09-05T15:05:49.820Z,6.75
2018-09-05T15:08:17.677Z,5.67
2018-09-05T15:10:45.584Z,6.17
2018-09-05T15:13:13.433Z,5.67
2018-09-05T15:15:41.285Z,5.17
2018-09-05T15:18:09.164Z,7.10
2018-09-05T15:20:36.983Z,5.20
2018-09-05T15:30:26.352Z,5.15
2018-09-05T15:32:54.216Z,5.80
2018-09-05T15:35:22.235Z,5.00
2018-09-05T15:37:50.141Z,4.90
2018-09-05T16:58:47.306Z,13.95
2018-09-05T17:01:15.183Z,6.80
2018-09-05T17:03:43.116Z,7.60
2018-09-05T17:06:11.041Z,7.00
2018-09-05T17:08:38.893Z,7.65
2018-09-05T17:11:06.966Z,7.60
2018-09-05T17:13:34.865Z,9.17
2018-09-05T17:16:02.871Z,7.40
2018-09-05T17:23:24.938Z,7.50
2018-09-05T17:25:52.777Z,9.77
2018-09-05T17:28:20.700Z,9.60
2018-09-05T17:30:48.649Z,9.27
2018-09-05T17:33:16.612Z,10.60
2018-09-05T17:35:44.779Z,7.30
2018-09-05T17:40:39.850Z,11.00
2018-09-05T17:43:07.733Z,11.90
2018-09-05T17:45:35.653Z,10.10
2018-09-05T17:48:03.557Z,9.63
2018-09-05T17:50:31.408Z,10.20
2018-09-05T17:52:59.363Z,9.60
2018-09-05T17:55:27.246Z,9.65
2018-09-05T18:05:16.511Z,13.40
2018-09-05T18:10:11.485Z,15.60
2018-09-05T18:12:39.360Z,11.63
2018-09-05T18:15:08.231Z,12.00
2018-09-05T18:17:36.134Z,11.13
2018-09-05T18:20:04.993Z,10.20
2018-09-05T18:22:33.919Z,10.37
2018-09-05T18:25:02.765Z,11.90
2018-09-05T18:27:30.704Z,13.63
2018-09-05T18:29:58.605Z,11.17
2018-09-05T18:32:26.445Z,12.77
2018-09-05T18:34:54.328Z,22.10
2018-09-05T18:37:22.247Z,14.00
2018-09-05T18:47:12.623Z,13.60
2018-09-05T22:28:01.962Z,12.50
2018-09-05T22:30:30.350Z,14.47
2018-09-05T22:32:58.192Z,14.23
2018-09-05T22:35:26.184Z,15.70
2018-09-05T22:37:54.102Z,20.23
2018-09-05T22:40:23.045Z,17.80
2018-09-05T22:52:26.746Z,15.40
2018-09-05T22:57:58.000Z,18.00
2018-09-05T23:00:35.412Z,16.50
2018-09-05T23:05:20.026Z,17.40
2018-09-05T23:07:58.858Z,16.47
2018-09-05T23:10:32.488Z,18.80
2018-09-05T23:13:07.268Z,17.13
2018-09-05T23:15:40.825Z,19.53
2018-09-05T23:18:16.440Z,14.87
2018-09-05T23:20:51.742Z,18.15
2018-09-05T23:23:25.301Z,18.90
2018-09-05T23:25:53.377Z,17.93
2018-09-05T23:28:21.322Z,18.90
2018-09-05T23:30:49.243Z,17.23
2018-09-05T23:33:17.127Z,17.00
2018-09-05T23:35:47.074Z,19.87
2018-09-05T23:38:15.987Z,17.15
2018-09-05T23:40:44.812Z,14.55
2018-09-05T23:43:14.797Z,15.20
2018-09-05T23:45:48.532Z,18.00
2018-09-05T23:48:16.596Z,14.95
2018-09-05T23:50:44.650Z,15.65
2018-09-05T23:53:12.732Z,16.20
2018-09-05T23:55:44.636Z,15.20
2018-09-05T23:58:13.542Z,17.10
